METAR AND TAF INFORMATION
METAR FOR LEZL
ADDS - METARS form results

(1625 UTC 22 April 2018)
Data provider http://aviationweather.gov/adds/metars/
 
METAR text: LEZL 221600Z 26004KT 220V330 9999 SCT040 24/14 Q1011 NOSIG
Conditions at: LEZL (SEVILLA (CIV/MIL, ES) observed 1600 UTC 22 April 2018
Temperature: 24.0°C (75°F)
Dewpoint: 14.0°C (57°F) [RH = 54%]
Pressure (altimeter): 29.85 inches Hg (1011.0 mb)
Winds: from the W (260 degrees) at 5 MPH (4 knots; 2.1 m/s)
Visibility: 6 or more miles (10+ km)
Ceiling: at least 12,000 feet AGL
Clouds: scattered clouds at 4000 feet AGL
Weather: no significant weather observed at this time

METAR text: LEZL 221530Z 29006KT 240V340 9999 SCT040 24/15 Q1011 NOSIG
Conditions at: LEZL (SEVILLA (CIV/MIL, ES) observed 1530 UTC 22 April 2018
Temperature: 24.0°C (75°F)
Dewpoint: 15.0°C (59°F) [RH = 57%]
Pressure (altimeter): 29.85 inches Hg (1011.0 mb)
Winds: from the WNW (290 degrees) at 7 MPH (6 knots; 3.1 m/s)
Visibility: 6 or more miles (10+ km)
Ceiling: at least 12,000 feet AGL
Clouds: scattered clouds at 4000 feet AGL
Weather: no significant weather observed at this time

Forecast for: LEZL (SEVILLA (CIV/MIL, ES)
Text: TAF LEZL 221400Z 2215/2315 06006KT 9999 SCT040 TX28/2315Z TN14/2306Z
Forecast period: 1500 UTC 22 April 2018 to 1500 UTC 23 April 2018
Forecast type: FROM: standard forecast or significant change
Winds: from the ENE (60 degrees) at 7 MPH (6 knots; 3.1 m/s)
Visibility: 6 or more miles (10+ km)
Clouds: scattered clouds at 4000 feet AGL
Weather: no significant weather forecast for this period
Forecast for: LEZL (SEVILLA (CIV/MIL, ES)
Text: TAF LEZL 221400Z 2215/2315 06006KT 9999 SCT040 TX28/2315Z TN14/2306Z
Forecast period: 1500 UTC 22 April 2018 to 1500 UTC 23 April 2018
Forecast type: FROM: standard forecast or significant change
Winds: from the ENE (60 degrees) at 7 MPH (6 knots; 3.1 m/s)
Visibility: 6 or more miles (10+ km)
Clouds: scattered clouds at 4000 feet AGL
Weather: no significant weather forecast for this period
Forecast for: LEZL (SEVILLA (CIV/MIL, ES)
Text: TAF LEZL 221400Z 2215/2315 06006KT 9999 SCT040 TX28/2315Z TN14/2306Z
Forecast period: 1500 to 2100 UTC 22 April 2018
Forecast type: TEMPORARY: The following changes expected for less than half the time period
Winds: from the SW (230 degrees) at 12 MPH (10 knots; 5.2 m/s)
Weather: no significant weather forecast for this period
Forecast for: LEZL (SEVILLA (CIV/MIL, ES)
Text: TAF LEZL 221400Z 2215/2315 06006KT 9999 SCT040 TX28/2315Z TN14/2306Z
Forecast period: 1500 to 2100 UTC 22 April 2018
Forecast type: TEMPORARY: The following changes expected for less than half the time period
Winds: from the SW (230 degrees) at 12 MPH (10 knots; 5.2 m/s)
Weather: no significant weather forecast for this period
Forecast for: LEZL (SEVILLA (CIV/MIL, ES)
Text: TAF LEZL 221400Z 2215/2315 06006KT 9999 SCT040 TX28/2315Z TN14/2306Z
Forecast period: 2100 UTC 22 April 2018 to 0600 UTC 23 April 2018
Forecast type: TEMPORARY: The following changes expected for less than half the time period
Visibility: 2.49 miles (4.01 km)
Clouds: scattered clouds at 4000 feet AGL
Weather: SHRA  (rain showers)
Forecast for: LEZL (SEVILLA (CIV/MIL, ES)
Text: TAF LEZL 221400Z 2215/2315 06006KT 9999 SCT040 TX28/2315Z TN14/2306Z
Forecast period: 2100 UTC 22 April 2018 to 0600 UTC 23 April 2018
Forecast type: TEMPORARY: The following changes expected for less than half the time period
Visibility: 2.49 miles (4.01 km)
Clouds: scattered clouds at 4000 feet AGL
Weather: SHRA  (rain showers)
Forecast for: LEZL (SEVILLA (CIV/MIL, ES)
Text: TAF LEZL 221400Z 2215/2315 06006KT 9999 SCT040 TX28/2315Z TN14/2306Z
Forecast period: 2100 UTC 22 April 2018 to 0600 UTC 23 April 2018
Forecast type: TEMPORARY: The following changes expected for less than half the time period
Visibility: 1.86 miles (2.99 km)
Clouds: scattered clouds at 4000 feet AGL
Weather: TSRA  (rain associated with thunderstorm(s))
Forecast for: LEZL (SEVILLA (CIV/MIL, ES)
Text: TAF LEZL 221400Z 2215/2315 06006KT 9999 SCT040 TX28/2315Z TN14/2306Z
Forecast period: 2100 UTC 22 April 2018 to 0600 UTC 23 April 2018
Forecast type: TEMPORARY: The following changes expected for less than half the time period
Visibility: 1.86 miles (2.99 km)
Clouds: scattered clouds at 4000 feet AGL
Weather: TSRA  (rain associated with thunderstorm(s))

 AIRPORT MAP

 RUNWAY INFORMATION
Runway 09 Runway length 11024 ft Runway width 148 ft
Runway elevation 83 ft Runway displaced threshold 0 ft Runway heading 90
Runway 27 Runway length 11024 ft Runway width 148 ft
Runway elevation 111 ft Runway displaced threshold 0 ft Runway heading 270

 AIRPORT FREQUENCIES
Type APP Name APP Frequency 120 MHZ
Type ATIS Name ATIS Frequency 118.175 MHZ
Type GND Name GND Frequency 121.7 MHZ
Type TWR Name TWR Frequency 118.1 MHZ

 AIRPORT NEAR NAVIGATION AIDS
Type NDB Name Sevilla Frequency 420 KHZ
Type VOR-DME Name Sevilla Frequency 113700 KHZ



Powered by Virtual Airlines Manager [v2.6.2]